sensor_id;sensor_type;location;lat;lon;timestamp;pressure;altitude;pressure_sealevel;temperature;humidity
39487;BME280;25173;50.430;18.926;2024-01-10T00:02:43;99901.81;;;-7.13;46.34
39487;BME280;25173;50.430;18.926;2024-01-10T00:05:44;99907.44;;;-7.18;46.39
39487;BME280;25173;50.430;18.926;2024-01-10T00:08:45;99898.91;;;-7.21;46.76
39487;BME280;25173;50.430;18.926;2024-01-10T00:11:45;99898.19;;;-7.23;46.79
39487;BME280;25173;50.430;18.926;2024-01-10T00:14:46;99901.09;;;-7.26;46.99
39487;BME280;25173;50.430;18.926;2024-01-10T00:17:46;99905.78;;;-7.19;47.29
39487;BME280;25173;50.430;18.926;2024-01-10T00:20:47;99914.19;;;-7.14;46.70
39487;BME280;25173;50.430;18.926;2024-01-10T00:23:48;99921.53;;;-7.06;46.61
39487;BME280;25173;50.430;18.926;2024-01-10T00:26:49;99922.97;;;-7.02;46.01
39487;BME280;25173;50.430;18.926;2024-01-10T00:29:49;99912.66;;;-7.05;45.78
39487;BME280;25173;50.430;18.926;2024-01-10T00:32:52;99920.34;;;-7.13;45.61
39487;BME280;25173;50.430;18.926;2024-01-10T00:35:52;99920.41;;;-7.26;45.63
39487;BME280;25173;50.430;18.926;2024-01-10T00:38:53;99925.81;;;-7.38;45.86
39487;BME280;25173;50.430;18.926;2024-01-10T00:41:53;99913.03;;;-7.56;46.03
39487;BME280;25173;50.430;18.926;2024-01-10T00:44:54;99908.72;;;-7.57;46.48
39487;BME280;25173;50.430;18.926;2024-01-10T00:47:54;99917.13;;;-7.52;46.55
39487;BME280;25173;50.430;18.926;2024-01-10T00:50:55;99921.84;;;-7.44;46.28
39487;BME280;25173;50.430;18.926;2024-01-10T00:53:55;99918.25;;;-7.32;46.17
39487;BME280;25173;50.430;18.926;2024-01-10T00:56:56;99917.06;;;-7.28;45.97
39487;BME280;25173;50.430;18.926;2024-01-10T00:59:57;99929.34;;;-7.27;45.85
39487;BME280;25173;50.430;18.926;2024-01-10T01:02:57;99925.97;;;-7.29;45.81
39487;BME280;25173;50.430;18.926;2024-01-10T01:05:58;99928.25;;;-7.35;45.81
39487;BME280;25173;50.430;18.926;2024-01-10T01:08:58;99925.44;;;-7.45;45.70
39487;BME280;25173;50.430;18.926;2024-01-10T01:11:59;99930.09;;;-7.60;45.89
39487;BME280;25173;50.430;18.926;2024-01-10T01:14:59;99930.31;;;-7.63;46.25
39487;BME280;25173;50.430;18.926;2024-01-10T01:18:00;99931.31;;;-7.53;46.15
39487;BME280;25173;50.430;18.926;2024-01-10T01:21:01;99924.22;;;-7.52;45.97
39487;BME280;25173;50.430;18.926;2024-01-10T01:24:02;99923.59;;;-7.56;46.06
39487;BME280;25173;50.430;18.926;2024-01-10T01:27:04;99918.56;;;-7.59;46.06
39487;BME280;25173;50.430;18.926;2024-01-10T01:30:05;99911.38;;;-7.57;46.22
39487;BME280;25173;50.430;18.926;2024-01-10T01:33:06;99913.75;;;-7.65;46.45
39487;BME280;25173;50.430;18.926;2024-01-10T01:36:06;99909.72;;;-7.70;47.02
39487;BME280;25173;50.430;18.926;2024-01-10T01:39:07;99900.16;;;-7.71;47.32
39487;BME280;25173;50.430;18.926;2024-01-10T01:42:07;99899.28;;;-7.72;47.71
39487;BME280;25173;50.430;18.926;2024-01-10T01:45:09;99899.31;;;-7.61;47.88
39487;BME280;25173;50.430;18.926;2024-01-10T01:48:10;99899.09;;;-7.47;47.81
39487;BME280;25173;50.430;18.926;2024-01-10T01:51:12;99903.59;;;-7.36;47.47
39487;BME280;25173;50.430;18.926;2024-01-10T01:54:13;99901.66;;;-7.34;47.63
39487;BME280;25173;50.430;18.926;2024-01-10T01:57:14;99902.75;;;-7.36;47.74
39487;BME280;25173;50.430;18.926;2024-01-10T02:00:15;99904.69;;;-7.27;47.54
39487;BME280;25173;50.430;18.926;2024-01-10T02:03:16;99905.16;;;-7.22;46.94
39487;BME280;25173;50.430;18.926;2024-01-10T02:06:16;99906.00;;;-7.22;46.66
39487;BME280;25173;50.430;18.926;2024-01-10T02:09:17;99903.94;;;-7.29;46.31
39487;BME280;25173;50.430;18.926;2024-01-10T02:12:18;99900.09;;;-7.36;46.45
39487;BME280;25173;50.430;18.926;2024-01-10T02:15:18;99892.38;;;-7.39;46.48
39487;BME280;25173;50.430;18.926;2024-01-10T02:18:19;99892.16;;;-7.36;46.32
39487;BME280;25173;50.430;18.926;2024-01-10T02:21:21;99888.81;;;-7.27;46.28
39487;BME280;25173;50.430;18.926;2024-01-10T02:24:22;99883.88;;;-7.21;46.11
39487;BME280;25173;50.430;18.926;2024-01-10T02:27:22;99876.78;;;-7.20;46.75
39487;BME280;25173;50.430;18.926;2024-01-10T02:30:23;99877.38;;;-7.28;46.91
39487;BME280;25173;50.430;18.926;2024-01-10T02:33:23;99872.19;;;-7.29;47.23
39487;BME280;25173;50.430;18.926;2024-01-10T02:36:24;99868.69;;;-7.30;47.23
39487;BME280;25173;50.430;18.926;2024-01-10T02:39:24;99866.75;;;-7.39;47.53
39487;BME280;25173;50.430;18.926;2024-01-10T02:42:27;99865.69;;;-7.36;47.84
39487;BME280;25173;50.430;18.926;2024-01-10T02:45:28;99863.78;;;-7.34;47.79
39487;BME280;25173;50.430;18.926;2024-01-10T02:48:29;99864.84;;;-7.26;47.58
39487;BME280;25173;50.430;18.926;2024-01-10T02:51:31;99863.16;;;-7.16;47.25
39487;BME280;25173;50.430;18.926;2024-01-10T02:54:31;99865.44;;;-7.11;46.62
39487;BME280;25173;50.430;18.926;2024-01-10T02:57:32;99871.59;;;-7.11;46.41
39487;BME280;25173;50.430;18.926;2024-01-10T03:00:32;99853.91;;;-7.21;46.19
39487;BME280;25173;50.430;18.926;2024-01-10T03:03:33;99847.03;;;-7.24;46.39
39487;BME280;25173;50.430;18.926;2024-01-10T03:06:33;99850.78;;;-7.26;46.98
39487;BME280;25173;50.430;18.926;2024-01-10T03:09:34;99852.22;;;-7.22;46.78
39487;BME280;25173;50.430;18.926;2024-01-10T03:12:35;99849.94;;;-7.27;46.71
39487;BME280;25173;50.430;18.926;2024-01-10T03:15:37;99847.88;;;-7.23;46.97
39487;BME280;25173;50.430;18.926;2024-01-10T03:18:37;99845.97;;;-7.21;46.57
39487;BME280;25173;50.430;18.926;2024-01-10T03:21:38;99852.22;;;-7.22;46.42
39487;BME280;25173;50.430;18.926;2024-01-10T03:24:38;99854.41;;;-7.27;45.97
39487;BME280;25173;50.430;18.926;2024-01-10T03:27:39;99851.25;;;-7.32;46.04
39487;BME280;25173;50.430;18.926;2024-01-10T03:30:40;99849.81;;;-7.36;45.99
39487;BME280;25173;50.430;18.926;2024-01-10T03:33:40;99844.28;;;-7.45;46.21
39487;BME280;25173;50.430;18.926;2024-01-10T03:36:41;99841.63;;;-7.45;46.13
39487;BME280;25173;50.430;18.926;2024-01-10T03:39:42;99844.88;;;-7.41;46.47
39487;BME280;25173;50.430;18.926;2024-01-10T03:42:42;99848.34;;;-7.40;46.65
39487;BME280;25173;50.430;18.926;2024-01-10T03:45:43;99850.28;;;-7.42;46.59
39487;BME280;25173;50.430;18.926;2024-01-10T03:48:44;99841.63;;;-7.45;46.37
39487;BME280;25173;50.430;18.926;2024-01-10T03:51:48;99846.28;;;-7.48;46.21
39487;BME280;25173;50.430;18.926;2024-01-10T03:54:48;99845.22;;;-7.46;46.25
39487;BME280;25173;50.430;18.926;2024-01-10T03:57:49;99840.31;;;-7.39;46.03
39487;BME280;25173;50.430;18.926;2024-01-10T04:00:49;99845.84;;;-7.31;46.07
39487;BME280;25173;50.430;18.926;2024-01-10T04:03:50;99842.47;;;-7.33;45.65
39487;BME280;25173;50.430;18.926;2024-01-10T04:06:52;99848.72;;;-7.45;46.07
39487;BME280;25173;50.430;18.926;2024-01-10T04:09:52;99842.69;;;-7.58;46.10
39487;BME280;25173;50.430;18.926;2024-01-10T04:12:53;99835.94;;;-7.62;46.69
39487;BME280;25173;50.430;18.926;2024-01-10T04:15:53;99848.34;;;-7.52;46.48
39487;BME280;25173;50.430;18.926;2024-01-10T04:18:54;99843.44;;;-7.45;46.43
39487;BME280;25173;50.430;18.926;2024-01-10T04:21:54;99837.19;;;-7.44;46.72
39487;BME280;25173;50.430;18.926;2024-01-10T04:25:00;99836.81;;;-7.51;46.96
39487;BME280;25173;50.430;18.926;2024-01-10T04:28:01;99838.50;;;-7.50;47.12
39487;BME280;25173;50.430;18.926;2024-01-10T04:31:02;99843.31;;;-7.43;47.09
39487;BME280;25173;50.430;18.926;2024-01-10T04:34:03;99831.41;;;-7.38;46.47
39487;BME280;25173;50.430;18.926;2024-01-10T04:37:03;99824.09;;;-7.34;46.65
39487;BME280;25173;50.430;18.926;2024-01-10T04:40:04;99829.22;;;-7.33;46.61
39487;BME280;25173;50.430;18.926;2024-01-10T04:43:05;99830.69;;;-7.29;46.68
39487;BME280;25173;50.430;18.926;2024-01-10T04:46:06;99830.56;;;-7.27;46.52
39487;BME280;25173;50.430;18.926;2024-01-10T04:49:07;99827.81;;;-7.37;46.38
39487;BME280;25173;50.430;18.926;2024-01-10T04:52:07;99831.41;;;-7.38;46.54
39487;BME280;25173;50.430;18.926;2024-01-10T04:55:08;99827.56;;;-7.34;46.54
39487;BME280;25173;50.430;18.926;2024-01-10T04:58:08;99835.38;;;-7.32;46.67
39487;BME280;25173;50.430;18.926;2024-01-10T05:01:09;99831.53;;;-7.28;46.60
39487;BME280;25173;50.430;18.926;2024-01-10T05:04:10;99827.44;;;-7.21;46.39
39487;BME280;25173;50.430;18.926;2024-01-10T05:07:10;99827.94;;;-7.27;46.66
39487;BME280;25173;50.430;18.926;2024-01-10T05:10:11;99828.16;;;-7.30;46.60
39487;BME280;25173;50.430;18.926;2024-01-10T05:13:15;99836.47;;;-7.24;46.48
39487;BME280;25173;50.430;18.926;2024-01-10T05:16:16;99833.09;;;-7.26;46.54
39487;BME280;25173;50.430;18.926;2024-01-10T05:19:17;99821.78;;;-7.17;46.47
39487;BME280;25173;50.430;18.926;2024-01-10T05:22:18;99829.50;;;-7.14;46.27
39487;BME280;25173;50.430;18.926;2024-01-10T05:25:19;99824.78;;;-7.21;46.45
39487;BME280;25173;50.430;18.926;2024-01-10T05:28:19;99823.84;;;-7.20;46.65
39487;BME280;25173;50.430;18.926;2024-01-10T05:31:20;99827.19;;;-7.18;46.32
39487;BME280;25173;50.430;18.926;2024-01-10T05:34:20;99833.09;;;-7.15;46.45
39487;BME280;25173;50.430;18.926;2024-01-10T05:37:21;99835.13;;;-7.07;45.94
39487;BME280;25173;50.430;18.926;2024-01-10T05:40:22;99837.78;;;-7.07;45.80
39487;BME280;25173;50.430;18.926;2024-01-10T05:43:23;99836.09;;;-7.08;45.74
39487;BME280;25173;50.430;18.926;2024-01-10T05:46:23;99833.44;;;-7.08;45.74
39487;BME280;25173;50.430;18.926;2024-01-10T05:49:24;99838.75;;;-7.08;45.48
39487;BME280;25173;50.430;18.926;2024-01-10T05:52:25;99842.97;;;-7.06;45.47
39487;BME280;25173;50.430;18.926;2024-01-10T05:55:25;99852.34;;;-7.13;45.47
39487;BME280;25173;50.430;18.926;2024-01-10T05:58:26;99852.59;;;-7.16;45.42
39487;BME280;25173;50.430;18.926;2024-01-10T06:01:27;99848.72;;;-7.23;45.51
39487;BME280;25173;50.430;18.926;2024-01-10T06:04:28;99851.88;;;-7.29;45.38
39487;BME280;25173;50.430;18.926;2024-01-10T06:07:30;99856.53;;;-7.32;45.41
39487;BME280;25173;50.430;18.926;2024-01-10T06:10:31;99854.16;;;-7.35;45.47
39487;BME280;25173;50.430;18.926;2024-01-10T06:13:32;99855.94;;;-7.47;45.51
39487;BME280;25173;50.430;18.926;2024-01-10T06:16:33;99855.06;;;-7.59;45.96
39487;BME280;25173;50.430;18.926;2024-01-10T06:19:33;99863.28;;;-7.51;46.07
39487;BME280;25173;50.430;18.926;2024-01-10T06:22:34;99859.94;;;-7.41;45.41
39487;BME280;25173;50.430;18.926;2024-01-10T06:25:34;99860.88;;;-7.42;45.54
39487;BME280;25173;50.430;18.926;2024-01-10T06:28:35;99862.69;;;-7.43;45.57
39487;BME280;25173;50.430;18.926;2024-01-10T06:31:35;99860.63;;;-7.39;45.55
39487;BME280;25173;50.430;18.926;2024-01-10T06:34:36;99853.91;;;-7.43;45.51
39487;BME280;25173;50.430;18.926;2024-01-10T06:37:38;99861.00;;;-7.44;45.49
39487;BME280;25173;50.430;18.926;2024-01-10T06:40:38;99846.22;;;-7.35;45.65
39487;BME280;25173;50.430;18.926;2024-01-10T06:43:39;99861.72;;;-7.31;45.46
39487;BME280;25173;50.430;18.926;2024-01-10T06:46:40;99859.19;;;-7.32;45.44
39487;BME280;25173;50.430;18.926;2024-01-10T06:49:41;99851.50;;;-7.35;45.24
39487;BME280;25173;50.430;18.926;2024-01-10T06:52:41;99847.66;;;-7.31;45.25
39487;BME280;25173;50.430;18.926;2024-01-10T06:55:42;99843.56;;;-7.24;45.05
39487;BME280;25173;50.430;18.926;2024-01-10T06:58:43;99844.78;;;-7.28;45.33
39487;BME280;25173;50.430;18.926;2024-01-10T07:01:45;99844.03;;;-7.30;45.44
39487;BME280;25173;50.430;18.926;2024-01-10T07:04:47;99841.50;;;-7.32;45.61
39487;BME280;25173;50.430;18.926;2024-01-10T07:07:48;99844.03;;;-7.30;45.30
39487;BME280;25173;50.430;18.926;2024-01-10T07:10:50;99835.97;;;-7.29;45.35
39487;BME280;25173;50.430;18.926;2024-01-10T07:13:50;99825.50;;;-7.30;45.71
39487;BME280;25173;50.430;18.926;2024-01-10T07:16:51;99822.13;;;-7.32;46.37
39487;BME280;25173;50.430;18.926;2024-01-10T07:19:52;99819.63;;;-7.34;46.99
39487;BME280;25173;50.430;18.926;2024-01-10T07:22:52;99821.91;;;-7.29;47.50
39487;BME280;25173;50.430;18.926;2024-01-10T07:25:53;99823.59;;;-7.17;47.72
39487;BME280;25173;50.430;18.926;2024-01-10T07:28:54;99818.38;;;-6.96;47.57
39487;BME280;25173;50.430;18.926;2024-01-10T07:31:54;99823.06;;;-6.78;47.76
39487;BME280;25173;50.430;18.926;2024-01-10T07:34:55;99828.31;;;-6.55;47.83
39487;BME280;25173;50.430;18.926;2024-01-10T07:37:56;99828.47;;;-6.36;47.35
39487;BME280;25173;50.430;18.926;2024-01-10T07:40:56;99830.00;;;-6.22;47.15
39487;BME280;25173;50.430;18.926;2024-01-10T07:43:59;99827.38;;;-6.22;46.86
39487;BME280;25173;50.430;18.926;2024-01-10T07:47:00;99815.28;;;-6.15;47.11
39487;BME280;25173;50.430;18.926;2024-01-10T07:50:02;99830.28;;;-6.05;47.13
39487;BME280;25173;50.430;18.926;2024-01-10T07:53:03;99829.63;;;-5.97;47.03
39487;BME280;25173;50.430;18.926;2024-01-10T07:56:04;99826.75;;;-5.84;47.06
39487;BME280;25173;50.430;18.926;2024-01-10T07:59:05;99819.84;;;-5.76;46.93
39487;BME280;25173;50.430;18.926;2024-01-10T08:02:06;99825.22;;;-5.66;47.01
39487;BME280;25173;50.430;18.926;2024-01-10T08:05:10;99822.75;;;-5.58;47.04
39487;BME280;25173;50.430;18.926;2024-01-10T08:08:11;99822.34;;;-5.54;47.07
39487;BME280;25173;50.430;18.926;2024-01-10T08:11:14;99819.75;;;-5.44;47.38
39487;BME280;25173;50.430;18.926;2024-01-10T08:14:17;99810.28;;;-5.37;47.17
39487;BME280;25173;50.430;18.926;2024-01-10T08:17:21;99809.50;;;-5.28;47.60
39487;BME280;25173;50.430;18.926;2024-01-10T08:20:44;99813.31;;;-5.11;47.84
39487;BME280;25173;50.430;18.926;2024-01-10T08:23:45;99813.25;;;-5.00;47.89
39487;BME280;25173;50.430;18.926;2024-01-10T08:26:47;99803.63;;;-4.91;48.01
39487;BME280;25173;50.430;18.926;2024-01-10T08:29:52;99813.19;;;-4.70;48.41
39487;BME280;25173;50.430;18.926;2024-01-10T08:32:52;99818.41;;;-4.49;48.38
39487;BME280;25173;50.430;18.926;2024-01-10T08:35:53;99820.66;;;-4.35;48.18
39487;BME280;25173;50.430;18.926;2024-01-10T08:38:54;99831.84;;;-4.21;48.02
39487;BME280;25173;50.430;18.926;2024-01-10T08:41:55;99820.69;;;-4.15;48.01
39487;BME280;25173;50.430;18.926;2024-01-10T08:44:56;99819.94;;;-3.98;48.18
39487;BME280;25173;50.430;18.926;2024-01-10T08:47:56;99819.38;;;-3.82;47.92
39487;BME280;25173;50.430;18.926;2024-01-10T08:50:58;99825.09;;;-3.68;47.96
39487;BME280;25173;50.430;18.926;2024-01-10T08:53:59;99826.34;;;-3.53;48.12
39487;BME280;25173;50.430;18.926;2024-01-10T08:57:00;99822.38;;;-3.39;48.25
39487;BME280;25173;50.430;18.926;2024-01-10T09:00:01;99818.72;;;-3.28;48.05
39487;BME280;25173;50.430;18.926;2024-01-10T09:03:02;99816.31;;;-3.22;48.25
39487;BME280;25173;50.430;18.926;2024-01-10T09:06:03;99823.00;;;-3.18;48.21
39487;BME280;25173;50.430;18.926;2024-01-10T09:09:04;99819.59;;;-3.10;48.62
39487;BME280;25173;50.430;18.926;2024-01-10T09:12:06;99812.53;;;-2.92;48.66
39487;BME280;25173;50.430;18.926;2024-01-10T09:15:07;99814.69;;;-2.78;48.70
39487;BME280;25173;50.430;18.926;2024-01-10T09:18:13;99814.19;;;-2.63;48.55
39487;BME280;25173;50.430;18.926;2024-01-10T09:21:14;99814.00;;;-2.52;48.77
39487;BME280;25173;50.430;18.926;2024-01-10T09:24:16;99816.16;;;-2.38;48.65
39487;BME280;25173;50.430;18.926;2024-01-10T09:27:17;99815.63;;;-2.24;48.76
39487;BME280;25173;50.430;18.926;2024-01-10T09:30:17;99809.63;;;-2.08;48.53
39487;BME280;25173;50.430;18.926;2024-01-10T09:33:19;99809.06;;;-1.94;48.71
39487;BME280;25173;50.430;18.926;2024-01-10T09:36:19;99806.97;;;-1.82;48.78
39487;BME280;25173;50.430;18.926;2024-01-10T09:39:20;99796.06;;;-1.71;48.72
39487;BME280;25173;50.430;18.926;2024-01-10T09:42:22;99788.47;;;-1.58;48.79
39487;BME280;25173;50.430;18.926;2024-01-10T09:45:26;99791.41;;;-1.43;48.78
39487;BME280;25173;50.430;18.926;2024-01-10T09:48:27;99793.66;;;-1.31;48.59
39487;BME280;25173;50.430;18.926;2024-01-10T09:51:29;99782.69;;;-1.20;48.73
39487;BME280;25173;50.430;18.926;2024-01-10T09:54:31;99777.22;;;-1.10;48.74
39487;BME280;25173;50.430;18.926;2024-01-10T09:57:34;99777.09;;;-1.00;48.49
39487;BME280;25173;50.430;18.926;2024-01-10T10:00:39;99778.97;;;-0.93;48.40
39487;BME280;25173;50.430;18.926;2024-01-10T10:03:41;99783.03;;;-0.81;48.36
39487;BME280;25173;50.430;18.926;2024-01-10T10:06:45;99774.19;;;-0.73;49.13
39487;BME280;25173;50.430;18.926;2024-01-10T10:09:46;99768.88;;;-0.65;48.79
39487;BME280;25173;50.430;18.926;2024-01-10T10:12:48;99767.38;;;-0.51;48.67
39487;BME280;25173;50.430;18.926;2024-01-10T10:16:02;99757.53;;;-0.43;48.71
39487;BME280;25173;50.430;18.926;2024-01-10T10:19:03;99763.78;;;-0.26;48.96
39487;BME280;25173;50.430;18.926;2024-01-10T10:22:10;99763.78;;;-0.18;48.35
39487;BME280;25173;50.430;18.926;2024-01-10T10:25:16;99760.94;;;-0.16;48.36
39487;BME280;25173;50.430;18.926;2024-01-10T10:28:16;99765.63;;;-0.02;48.69
39487;BME280;25173;50.430;18.926;2024-01-10T10:31:19;99764.97;;;0.20;48.85
39487;BME280;25173;50.430;18.926;2024-01-10T10:34:21;99770.97;;;0.38;48.54
39487;BME280;25173;50.430;18.926;2024-01-10T10:37:22;99766.09;;;0.50;48.46
39487;BME280;25173;50.430;18.926;2024-01-10T10:40:23;99762.03;;;0.62;48.67
39487;BME280;25173;50.430;18.926;2024-01-10T10:43:25;99766.88;;;0.75;48.54
39487;BME280;25173;50.430;18.926;2024-01-10T10:46:27;99760.47;;;0.84;48.46
39487;BME280;25173;50.430;18.926;2024-01-10T10:49:28;99764.13;;;0.99;48.71
39487;BME280;25173;50.430;18.926;2024-01-10T10:52:33;99765.59;;;1.10;48.46
39487;BME280;25173;50.430;18.926;2024-01-10T10:55:39;99760.84;;;1.20;48.10
39487;BME280;25173;50.430;18.926;2024-01-10T10:58:42;99754.59;;;1.28;47.96
39487;BME280;25173;50.430;18.926;2024-01-10T11:01:44;99759.25;;;1.34;48.10
39487;BME280;25173;50.430;18.926;2024-01-10T11:04:47;99744.78;;;1.43;48.41
39487;BME280;25173;50.430;18.926;2024-01-10T11:07:48;99753.09;;;1.56;48.35
39487;BME280;25173;50.430;18.926;2024-01-10T11:10:50;99746.97;;;1.70;48.30
39487;BME280;25173;50.430;18.926;2024-01-10T11:14:14;99746.22;;;1.84;48.29
39487;BME280;25173;50.430;18.926;2024-01-10T11:17:44;99739.03;;;2.00;47.95
39487;BME280;25173;50.430;18.926;2024-01-10T11:20:57;99743.13;;;2.10;48.32
39487;BME280;25173;50.430;18.926;2024-01-10T11:24:01;99747.41;;;2.19;48.15
39487;BME280;25173;50.430;18.926;2024-01-10T11:27:21;99747.63;;;2.32;48.12
39487;BME280;25173;50.430;18.926;2024-01-10T11:30:35;99747.56;;;2.41;47.93
39487;BME280;25173;50.430;18.926;2024-01-10T11:33:39;99748.78;;;2.53;48.15
39487;BME280;25173;50.430;18.926;2024-01-10T11:37:11;99746.31;;;2.66;47.68
39487;BME280;25173;50.430;18.926;2024-01-10T11:40:13;99744.63;;;2.80;47.95
39487;BME280;25173;50.430;18.926;2024-01-10T11:43:13;99740.44;;;2.92;47.82
39487;BME280;25173;50.430;18.926;2024-01-10T11:46:14;99733.56;;;3.04;47.71
39487;BME280;25173;50.430;18.926;2024-01-10T11:49:18;99733.94;;;3.16;47.56
39487;BME280;25173;50.430;18.926;2024-01-10T11:52:21;99722.50;;;3.28;47.45
39487;BME280;25173;50.430;18.926;2024-01-10T11:55:47;99718.84;;;3.36;46.70
39487;BME280;25173;50.430;18.926;2024-01-10T11:59:00;99723.94;;;3.45;46.77
39487;BME280;25173;50.430;18.926;2024-01-10T12:02:04;99719.28;;;3.54;46.90
39487;BME280;25173;50.430;18.926;2024-01-10T12:05:05;99728.09;;;3.63;46.87
39487;BME280;25173;50.430;18.926;2024-01-10T12:08:10;99729.53;;;3.65;46.98
39487;BME280;25173;50.430;18.926;2024-01-10T12:11:20;99734.16;;;3.71;46.88
39487;BME280;25173;50.430;18.926;2024-01-10T12:14:21;99727.19;;;3.77;46.83
39487;BME280;25173;50.430;18.926;2024-01-10T12:17:26;99719.41;;;3.88;46.94
39487;BME280;25173;50.430;18.926;2024-01-10T12:20:27;99707.91;;;4.01;46.60
39487;BME280;25173;50.430;18.926;2024-01-10T12:23:29;99701.56;;;4.09;46.21
39487;BME280;25173;50.430;18.926;2024-01-10T12:26:32;99702.66;;;4.14;46.56
39487;BME280;25173;50.430;18.926;2024-01-10T12:29:33;99701.00;;;4.13;45.80
39487;BME280;25173;50.430;18.926;2024-01-10T12:32:34;99689.38;;;4.13;45.70
39487;BME280;25173;50.430;18.926;2024-01-10T12:35:34;99690.59;;;4.10;45.80
39487;BME280;25173;50.430;18.926;2024-01-10T12:38:35;99687.25;;;4.08;45.62
39487;BME280;25173;50.430;18.926;2024-01-10T12:41:36;99684.16;;;4.11;45.64
39487;BME280;25173;50.430;18.926;2024-01-10T12:44:37;99678.63;;;4.19;45.98
39487;BME280;25173;50.430;18.926;2024-01-10T12:47:38;99668.34;;;4.29;46.17
39487;BME280;25173;50.430;18.926;2024-01-10T12:50:40;99670.88;;;4.38;46.20
39487;BME280;25173;50.430;18.926;2024-01-10T12:53:43;99676.34;;;4.44;46.22
39487;BME280;25173;50.430;18.926;2024-01-10T12:56:44;99673.69;;;4.51;46.10
39487;BME280;25173;50.430;18.926;2024-01-10T12:59:44;99667.47;;;4.57;45.98
39487;BME280;25173;50.430;18.926;2024-01-10T13:02:45;99665.66;;;4.64;45.99
39487;BME280;25173;50.430;18.926;2024-01-10T13:05:47;99661.50;;;4.68;45.87
39487;BME280;25173;50.430;18.926;2024-01-10T13:08:48;99654.28;;;4.75;45.77
39487;BME280;25173;50.430;18.926;2024-01-10T13:11:52;99662.38;;;4.75;45.66
39487;BME280;25173;50.430;18.926;2024-01-10T13:14:57;99652.88;;;4.79;45.73
39487;BME280;25173;50.430;18.926;2024-01-10T13:18:01;99659.94;;;4.80;45.42
39487;BME280;25173;50.430;18.926;2024-01-10T13:21:03;99660.16;;;4.85;45.75
39487;BME280;25173;50.430;18.926;2024-01-10T13:24:05;99651.66;;;4.88;45.42
39487;BME280;25173;50.430;18.926;2024-01-10T13:27:06;99660.19;;;4.92;45.62
39487;BME280;25173;50.430;18.926;2024-01-10T13:30:11;99663.53;;;4.94;45.11
39487;BME280;25173;50.430;18.926;2024-01-10T13:33:12;99667.06;;;4.94;45.16
39487;BME280;25173;50.430;18.926;2024-01-10T13:36:13;99667.69;;;4.96;45.36
39487;BME280;25173;50.430;18.926;2024-01-10T13:39:14;99657.50;;;4.98;44.90
39487;BME280;25173;50.430;18.926;2024-01-10T13:42:15;99661.47;;;4.96;44.83
39487;BME280;25173;50.430;18.926;2024-01-10T13:45:16;99654.78;;;4.92;44.74
39487;BME280;25173;50.430;18.926;2024-01-10T13:48:17;99655.19;;;4.89;44.60
39487;BME280;25173;50.430;18.926;2024-01-10T13:51:18;99654.94;;;4.84;44.50
39487;BME280;25173;50.430;18.926;2024-01-10T13:54:18;99652.66;;;4.81;44.50
39487;BME280;25173;50.430;18.926;2024-01-10T13:57:19;99653.69;;;4.80;44.32
39487;BME280;25173;50.430;18.926;2024-01-10T14:00:20;99652.84;;;4.73;44.24
39487;BME280;25173;50.430;18.926;2024-01-10T14:03:21;99654.44;;;4.67;44.26
39487;BME280;25173;50.430;18.926;2024-01-10T14:06:22;99656.03;;;4.55;44.11
39487;BME280;25173;50.430;18.926;2024-01-10T14:09:22;99650.41;;;4.50;44.23
39487;BME280;25173;50.430;18.926;2024-01-10T14:12:24;99647.00;;;4.35;44.40
39487;BME280;25173;50.430;18.926;2024-01-10T14:15:33;99651.25;;;4.22;44.51
39487;BME280;25173;50.430;18.926;2024-01-10T14:18:35;99649.94;;;4.12;44.26
39487;BME280;25173;50.430;18.926;2024-01-10T14:21:35;99650.69;;;3.99;44.32
39487;BME280;25173;50.430;18.926;2024-01-10T14:24:36;99641.34;;;3.74;44.58
39487;BME280;25173;50.430;18.926;2024-01-10T14:27:36;99638.28;;;3.56;44.51
39487;BME280;25173;50.430;18.926;2024-01-10T14:30:39;99645.00;;;3.45;44.58
39487;BME280;25173;50.430;18.926;2024-01-10T14:33:41;99640.59;;;3.37;44.79
39487;BME280;25173;50.430;18.926;2024-01-10T14:36:41;99644.41;;;3.28;44.76
39487;BME280;25173;50.430;18.926;2024-01-10T14:39:42;99644.53;;;3.20;45.00
39487;BME280;25173;50.430;18.926;2024-01-10T14:42:42;99646.06;;;3.08;45.10
39487;BME280;25173;50.430;18.926;2024-01-10T14:45:43;99646.94;;;2.94;45.45
39487;BME280;25173;50.430;18.926;2024-01-10T14:48:44;99642.41;;;2.80;45.62
39487;BME280;25173;50.430;18.926;2024-01-10T14:51:45;99642.94;;;2.75;45.69
39487;BME280;25173;50.430;18.926;2024-01-10T14:54:47;99638.50;;;2.67;45.70
39487;BME280;25173;50.430;18.926;2024-01-10T14:57:47;99641.13;;;2.46;45.83
39487;BME280;25173;50.430;18.926;2024-01-10T15:00:48;99627.50;;;2.33;46.19
39487;BME280;25173;50.430;18.926;2024-01-10T15:03:49;99626.66;;;2.18;46.41
39487;BME280;25173;50.430;18.926;2024-01-10T15:06:52;99640.66;;;2.13;46.30
39487;BME280;25173;50.430;18.926;2024-01-10T15:09:52;99634.53;;;2.05;46.44
39487;BME280;25173;50.430;18.926;2024-01-10T15:12:53;99639.88;;;1.90;46.10
39487;BME280;25173;50.430;18.926;2024-01-10T15:15:54;99641.97;;;1.80;46.22
39487;BME280;25173;50.430;18.926;2024-01-10T15:18:54;99632.13;;;1.72;45.98
39487;BME280;25173;50.430;18.926;2024-01-10T15:21:55;99634.25;;;1.62;46.11
39487;BME280;25173;50.430;18.926;2024-01-10T15:24:58;99628.34;;;1.44;46.23
39487;BME280;25173;50.430;18.926;2024-01-10T15:27:59;99624.41;;;1.32;46.37
39487;BME280;25173;50.430;18.926;2024-01-10T15:31:00;99628.06;;;1.16;46.46
39487;BME280;25173;50.430;18.926;2024-01-10T15:34:02;99622.78;;;1.00;46.29
39487;BME280;25173;50.430;18.926;2024-01-10T15:37:03;99625.09;;;0.80;46.50
39487;BME280;25173;50.430;18.926;2024-01-10T15:40:08;99612.94;;;0.61;46.54
39487;BME280;25173;50.430;18.926;2024-01-10T15:43:09;99621.00;;;0.53;46.73
39487;BME280;25173;50.430;18.926;2024-01-10T15:46:17;99618.19;;;0.47;46.50
39487;BME280;25173;50.430;18.926;2024-01-10T15:49:18;99616.06;;;0.34;46.45
39487;BME280;25173;50.430;18.926;2024-01-10T15:52:18;99614.28;;;0.18;46.31
39487;BME280;25173;50.430;18.926;2024-01-10T15:55:26;99615.31;;;0.01;46.52